Time;durP1;ratioP1;P1;durP2;ratioP2;P2;SDS_P1;SDS_P2;PMS_P1;PMS_P2;Temp;Humidity;BMP_temperature;BMP_pressure;BME280_temperature;BME280_humidity;BME280_pressure;Samples;Min_cycle;Max_cycle;Signal;HPM_P1;HPM_P2
2022/06/01 00:01:15;;;;;;;1.47;1.13;;;18.50;65.50;;;;;;5015233;28;20460;-78
2022/06/01 00:03:45;;;;;;;2.20;1.60;;;18.50;65.90;;;;;;5023654;28;20455;-77
2022/06/01 00:06:14;;;;;;;1.40;1.30;;;18.50;66.60;;;;;;5015695;28;20463;-78
2022/06/01 00:08:42;;;;;;;1.63;1.53;;;18.50;65.20;;;;;;5019019;28;20463;-78
2022/06/01 00:11:11;;;;;;;1.33;1.10;;;18.50;62.60;;;;;;5028923;28;20479;-78
2022/06/01 00:13:40;;;;;;;2.93;2.03;;;18.40;60.30;;;;;;5024468;28;20552;-78
2022/06/01 00:16:08;;;;;;;1.47;1.37;;;18.40;58.90;;;;;;5015048;28;20450;-78
2022/06/01 00:18:37;;;;;;;1.40;1.27;;;18.40;59.90;;;;;;5010540;28;20453;-78
2022/06/01 00:21:08;;;;;;;1.70;1.60;;;18.50;59.90;;;;;;5020424;28;20483;-78
2022/06/01 00:23:37;;;;;;;2.50;1.30;;;18.50;60.50;;;;;;5038411;28;20550;-77
2022/06/01 00:26:05;;;;;;;2.70;1.47;;;18.50;60.60;;;;;;5014094;28;20468;-79
2022/06/01 00:28:34;;;;;;;1.90;1.80;;;18.50;61.80;;;;;;5011876;28;20473;-77
2022/06/01 00:31:03;;;;;;;1.43;1.33;;;18.40;64.20;;;;;;5021034;28;20559;-77
2022/06/01 00:33:32;;;;;;;2.07;1.30;;;18.30;62.00;;;;;;5021113;28;20578;-77
2022/06/01 00:36:01;;;;;;;1.70;1.30;;;18.20;60.00;;;;;;5015649;28;20468;-77
2022/06/01 00:38:30;;;;;;;2.67;1.50;;;18.20;60.60;;;;;;5015500;28;20460;-77
2022/06/01 00:40:58;;;;;;;1.93;1.83;;;18.30;61.30;;;;;;5016660;28;20476;-77
2022/06/01 00:43:38;;;;;;;1.63;1.20;;;18.30;62.20;;;;;;5016225;28;20613;-78
2022/06/01 00:46:06;;;;;;;1.70;1.60;;;18.30;59.90;;;;;;5019807;28;20507;-78
2022/06/01 00:48:35;;;;;;;1.70;1.60;;;18.20;63.70;;;;;;5021606;28;20468;-78
2022/06/01 00:51:03;;;;;;;1.80;1.70;;;18.20;63.70;;;;;;5023568;28;20518;-77
2022/06/01 00:53:36;;;;;;;1.83;1.60;;;18.20;61.40;;;;;;5017679;28;20467;-78
2022/06/01 00:56:11;;;;;;;1.97;1.77;;;18.10;58.00;;;;;;5014033;28;20456;-78
2022/06/01 00:58:41;;;;;;;1.47;1.37;;;18.00;58.10;;;;;;5017428;28;20459;-78
2022/06/01 01:01:14;;;;;;;1.53;1.43;;;18.00;58.90;;;;;;5023503;28;20474;-78
2022/06/01 01:03:45;;;;;;;1.53;1.30;;;18.00;58.70;;;;;;5026273;28;20916;-77
2022/06/01 01:06:17;;;;;;;1.70;1.30;;;18.00;59.30;;;;;;5023764;28;20462;-78
2022/06/01 01:08:48;;;;;;;1.50;1.40;;;18.10;58.80;;;;;;5025181;28;20455;-77
2022/06/01 01:11:21;;;;;;;2.23;1.53;;;18.00;59.10;;;;;;5015095;28;20499;-77
2022/06/01 01:13:52;;;;;;;1.90;1.80;;;18.00;59.60;;;;;;5024501;28;20463;-77
2022/06/01 01:16:21;;;;;;;1.60;1.50;;;18.00;60.50;;;;;;5023117;28;20467;-77
2022/06/01 01:18:52;;;;;;;1.57;1.47;;;17.90;61.50;;;;;;5014488;28;20477;-77
2022/06/01 01:21:27;;;;;;;1.83;1.40;;;17.90;62.60;;;;;;5017108;28;20490;-78
2022/06/01 01:24:09;;;;;;;4.20;1.60;;;17.90;60.90;;;;;;5021200;28;20455;-78
2022/06/01 01:26:39;;;;;;;1.93;1.30;;;17.80;63.60;;;;;;5018144;28;20448;-78
2022/06/01 01:29:09;;;;;;;1.47;1.37;;;17.90;67.30;;;;;;5019523;28;20455;-78
2022/06/01 01:31:39;;;;;;;1.50;1.40;;;17.90;66.50;;;;;;5014531;28;20489;-78
2022/06/01 01:34:09;;;;;;;3.57;1.30;;;17.90;67.50;;;;;;5021254;28;20462;-78
2022/06/01 01:36:43;;;;;;;2.10;1.40;;;17.90;67.90;;;;;;5017770;28;20847;-77
2022/06/01 01:39:15;;;;;;;1.57;1.40;;;18.00;70.10;;;;;;5012611;28;20505;-78
2022/06/01 01:41:47;;;;;;;1.43;1.33;;;17.90;69.10;;;;;;5012243;28;20476;-77
2022/06/01 01:44:20;;;;;;;1.47;1.37;;;18.00;69.80;;;;;;5008249;28;21498;-78
2022/06/01 01:46:50;;;;;;;2.07;1.40;;;18.00;71.70;;;;;;5019050;28;20525;-77
2022/06/01 01:49:21;;;;;;;1.63;1.53;;;17.90;71.80;;;;;;5017097;28;21221;-78
2022/06/01 01:51:50;;;;;;;1.70;1.20;;;17.90;71.30;;;;;;5016029;28;20504;-78
2022/06/01 01:54:36;;;;;;;2.70;1.87;;;17.80;70.70;;;;;;5016381;28;20441;-77
2022/06/01 01:57:31;;;;;;;2.40;1.50;;;17.70;70.70;;;;;;5011438;28;20451;-78
2022/06/01 02:00:14;;;;;;;1.47;1.37;;;17.70;69.80;;;;;;5009183;28;20488;-78
2022/06/01 02:02:50;;;;;;;2.53;1.30;;;17.70;71.30;;;;;;5014338;28;20459;-77
2022/06/01 02:08:22;;;;;;;1.50;1.30;;;17.40;77.50;;;;;;5018392;28;20453;-77
2022/06/01 02:13:40;;;;;;;1.90;1.33;;;17.50;79.50;;;;;;5015447;28;20454;-78
2022/06/01 02:16:09;;;;;;;1.60;1.50;;;17.50;84.50;;;;;;5017602;28;20512;-78
2022/06/01 02:18:42;;;;;;;2.27;2.07;;;17.50;84.40;;;;;;5023876;28;20509;-78
2022/06/01 02:21:14;;;;;;;1.63;1.40;;;17.50;82.90;;;;;;5023317;28;20462;-78
2022/06/01 02:23:42;;;;;;;1.80;1.70;;;17.50;85.70;;;;;;5019461;28;21005;-76
2022/06/01 02:26:11;;;;;;;1.57;1.47;;;17.30;87.70;;;;;;5017237;28;20454;-77
2022/06/01 02:28:44;;;;;;;1.67;1.57;;;17.30;90.40;;;;;;5019872;28;21160;-77
2022/06/01 02:31:15;;;;;;;1.50;1.40;;;17.20;90.30;;;;;;5016192;28;20556;-77
2022/06/01 02:33:45;;;;;;;1.97;1.47;;;17.20;92.00;;;;;;5014895;28;20532;-77
2022/06/01 02:36:16;;;;;;;1.43;1.33;;;17.20;93.10;;;;;;5021055;28;20974;-78
2022/06/01 02:38:48;;;;;;;1.70;1.60;;;17.10;94.30;;;;;;5019477;28;20463;-76
2022/06/01 02:44:04;;;;;;;1.40;1.30;;;17.20;95.40;;;;;;5017889;28;20453;-77
2022/06/01 02:46:33;;;;;;;1.50;1.40;;;17.10;94.40;;;;;;5015204;28;20471;-77
2022/06/01 02:49:01;;;;;;;1.60;1.50;;;17.00;95.20;;;;;;5018682;28;20459;-78
2022/06/01 02:51:30;;;;;;;1.50;1.40;;;17.00;97.60;;;;;;5023302;28;21102;-78
2022/06/01 02:53:58;;;;;;;1.30;1.20;;;17.00;97.60;;;;;;5022120;28;20547;-78
2022/06/01 02:56:27;;;;;;;2.80;1.90;;;17.00;98.70;;;;;;5020518;28;20472;-79
2022/06/01 02:58:56;;;;;;;1.40;1.30;;;17.00;99.90;;;;;;5017021;28;20459;-78
2022/06/01 03:01:25;;;;;;;1.80;1.30;;;17.10;99.90;;;;;;5025007;28;20478;-78
2022/06/01 03:03:54;;;;;;;1.53;1.43;;;17.10;99.90;;;;;;5020173;28;20958;-78
2022/06/01 03:06:22;;;;;;;1.97;1.80;;;17.10;99.90;;;;;;5027275;28;20464;-78
2022/06/01 03:09:11;;;;;;;4.00;1.80;;;17.10;99.90;;;;;;5018619;28;20472;-78
2022/06/01 03:11:39;;;;;;;1.57;1.47;;;17.10;99.90;;;;;;5029562;28;20865;-77
2022/06/01 03:14:07;;;;;;;1.83;1.60;;;17.10;99.90;;;;;;5015952;28;20451;-77
2022/06/01 03:16:37;;;;;;;3.83;1.60;;;17.00;99.90;;;;;;5010475;28;20989;-77
2022/06/01 03:19:06;;;;;;;1.60;1.50;;;17.00;99.90;;;;;;5016315;28;20801;-77
2022/06/01 03:21:35;;;;;;;1.70;1.60;;;17.10;99.90;;;;;;5016827;28;20469;-77
2022/06/01 03:24:03;;;;;;;1.50;1.40;;;17.20;99.90;;;;;;5026373;28;20473;-77
2022/06/01 03:26:31;;;;;;;1.37;1.27;;;17.20;99.90;;;;;;5021042;28;20447;-76
2022/06/01 03:28:59;;;;;;;2.50;1.50;;;17.20;99.90;;;;;;5016026;28;20468;-77
2022/06/01 03:31:28;;;;;;;2.80;1.70;;;17.10;99.90;;;;;;5020911;28;20490;-77
2022/06/01 03:33:58;;;;;;;1.60;1.50;;;17.10;99.90;;;;;;5020617;28;20550;-76
2022/06/01 03:36:26;;;;;;;4.33;1.60;;;17.10;99.90;;;;;;5015195;28;20454;-77
2022/06/01 03:38:55;;;;;;;1.87;1.30;;;17.10;99.90;;;;;;5018215;28;20485;-77
2022/06/01 03:41:27;;;;;;;1.73;1.60;;;17.10;99.90;;;;;;5022482;28;21064;-78
2022/06/01 03:46:41;;;;;;;1.87;1.77;;;17.10;99.90;;;;;;5017334;28;20467;-78
2022/06/01 03:49:11;;;;;;;1.47;1.37;;;16.70;99.90;;;;;;5019276;28;20453;-78
2022/06/01 03:51:39;;;;;;;1.80;1.70;;;16.40;99.90;;;;;;5015879;28;20486;-77
2022/06/01 03:54:07;;;;;;;2.00;1.63;;;16.40;99.90;;;;;;5012375;28;20443;-77
2022/06/01 03:56:35;;;;;;;2.30;1.60;;;16.30;99.90;;;;;;5020013;28;20472;-77
2022/06/01 03:59:04;;;;;;;1.50;1.40;;;16.40;99.90;;;;;;5019426;28;20468;-77
2022/06/01 04:01:32;;;;;;;1.53;1.43;;;16.60;99.90;;;;;;5012640;28;20479;-78
2022/06/01 04:04:00;;;;;;;2.13;1.90;;;16.80;99.90;;;;;;5020240;28;20512;-77
2022/06/01 04:06:30;;;;;;;2.67;1.70;;;16.90;99.90;;;;;;5017110;28;20462;-78
2022/06/01 04:08:59;;;;;;;2.67;1.90;;;16.90;99.90;;;;;;5023128;28;20457;-78
2022/06/01 04:11:27;;;;;;;2.03;1.40;;;16.90;99.90;;;;;;5021408;28;20478;-77
2022/06/01 04:13:56;;;;;;;1.97;1.70;;;16.90;99.90;;;;;;5026855;28;20459;-74
2022/06/01 04:16:25;;;;;;;2.53;2.33;;;16.90;99.90;;;;;;5027945;28;20454;-73
2022/06/01 04:18:53;;;;;;;1.87;1.50;;;16.90;99.90;;;;;;5018597;28;20953;-74
2022/06/01 04:21:26;;;;;;;2.80;2.33;;;16.90;99.90;;;;;;5020950;28;20513;-74
2022/06/01 04:24:01;;;;;;;1.73;1.40;;;17.00;99.90;;;;;;5025436;28;20510;-75
2022/06/01 04:26:29;;;;;;;1.60;1.50;;;17.00;99.90;;;;;;5014180;28;20533;-78
2022/06/01 04:28:58;;;;;;;2.00;1.90;;;17.10;99.90;;;;;;5016813;28;20469;-78
2022/06/01 04:31:28;;;;;;;1.73;1.50;;;17.10;99.90;;;;;;5017761;28;21059;-78
2022/06/01 04:33:56;;;;;;;3.40;1.50;;;17.10;99.90;;;;;;5016262;28;20454;-77
2022/06/01 04:36:24;;;;;;;1.90;1.80;;;17.10;99.90;;;;;;5020726;28;20454;-77
2022/06/01 04:38:54;;;;;;;4.83;2.03;;;17.10;99.90;;;;;;5017476;28;20500;-78
2022/06/01 04:41:23;;;;;;;4.60;2.90;;;17.10;99.90;;;;;;5018226;28;20459;-78
2022/06/01 04:43:51;;;;;;;2.17;1.73;;;17.10;99.90;;;;;;5016069;28;20445;-78
2022/06/01 04:46:19;;;;;;;3.87;1.70;;;17.10;99.90;;;;;;5019871;28;20450;-78
2022/06/01 04:48:48;;;;;;;2.97;1.90;;;17.10;99.90;;;;;;5013428;28;20445;-78
2022/06/01 04:51:16;;;;;;;3.43;1.90;;;17.10;99.90;;;;;;5021479;28;21123;-77
2022/06/01 04:53:45;;;;;;;2.87;1.63;;;17.00;99.90;;;;;;5021974;28;20467;-78
2022/06/01 04:56:15;;;;;;;1.83;1.73;;;17.10;99.90;;;;;;5018234;28;20463;-78
2022/06/01 04:58:43;;;;;;;2.10;1.77;;;17.00;99.90;;;;;;5018614;28;20448;-78
2022/06/01 05:01:11;;;;;;;2.60;1.63;;;16.90;99.90;;;;;;5020822;28;20533;-78
2022/06/01 05:03:40;;;;;;;2.27;1.50;;;17.00;99.90;;;;;;5021092;28;20468;-78
2022/06/01 05:06:08;;;;;;;1.70;1.40;;;17.00;99.90;;;;;;5019597;28;20452;-78
2022/06/01 05:08:36;;;;;;;3.47;1.50;;;17.10;99.90;;;;;;5024985;28;21356;-80
2022/06/01 05:11:04;;;;;;;1.50;1.40;;;17.20;99.90;;;;;;5027867;28;20471;-78
2022/06/01 05:13:34;;;;;;;2.30;1.73;;;17.30;99.90;;;;;;5017547;28;20486;-79
2022/06/01 05:16:04;;;;;;;4.10;2.00;;;17.30;99.90;;;;;;5010214;28;20903;-78
2022/06/01 05:18:32;;;;;;;3.00;2.80;;;17.40;99.90;;;;;;5021454;28;20469;-78
2022/06/01 05:21:00;;;;;;;3.37;2.37;;;17.30;99.90;;;;;;5014296;28;20843;-77
2022/06/01 05:23:28;;;;;;;2.70;1.80;;;17.40;99.90;;;;;;5020722;28;21184;-78
2022/06/01 05:25:56;;;;;;;2.17;2.00;;;17.40;99.90;;;;;;5025866;28;20959;-78
2022/06/01 05:28:28;;;;;;;2.53;2.27;;;17.40;99.90;;;;;;5023638;28;20981;-77
2022/06/01 05:31:03;;;;;;;2.70;2.50;;;17.40;99.90;;;;;;5016901;28;20928;-79
2022/06/01 05:33:31;;;;;;;2.80;1.93;;;17.40;99.90;;;;;;5023123;28;20480;-78
2022/06/01 05:36:00;;;;;;;3.93;1.83;;;17.40;99.90;;;;;;5022037;28;20477;-77
2022/06/01 05:38:28;;;;;;;1.90;1.80;;;17.50;99.90;;;;;;5026742;28;20540;-78
2022/06/01 05:40:56;;;;;;;3.83;2.70;;;17.40;99.90;;;;;;5014795;28;20564;-77
2022/06/01 05:43:25;;;;;;;2.40;1.77;;;17.40;99.90;;;;;;5026950;28;20811;-78
2022/06/01 05:45:53;;;;;;;2.20;1.93;;;17.50;99.90;;;;;;5025976;28;20467;-77
2022/06/01 05:48:24;;;;;;;6.13;2.17;;;17.50;99.90;;;;;;5026014;28;20460;-78
2022/06/01 05:50:58;;;;;;;2.93;2.00;;;17.60;99.90;;;;;;5026041;28;21029;-78
2022/06/01 05:53:26;;;;;;;1.70;1.60;;;17.60;99.90;;;;;;5018343;28;20514;-77
2022/06/01 05:55:54;;;;;;;2.10;1.97;;;17.60;99.90;;;;;;5013813;28;20983;-78
2022/06/01 05:58:24;;;;;;;1.80;1.70;;;17.70;99.90;;;;;;5026881;28;20454;-78
2022/06/01 06:00:54;;;;;;;3.43;1.93;;;17.70;99.90;;;;;;5023793;28;20466;-78
2022/06/01 06:03:24;;;;;;;2.57;2.37;;;17.80;99.90;;;;;;5030202;28;20486;-78
2022/06/01 06:06:15;;;;;;;2.43;1.70;;;17.80;99.90;;;;;;5029918;28;20461;-78
2022/06/01 06:08:49;;;;;;;2.30;1.53;;;17.80;99.90;;;;;;5030362;28;20967;-78
2022/06/01 06:11:24;;;;;;;2.00;1.80;;;17.90;99.90;;;;;;5019848;28;21093;-78
2022/06/01 06:13:53;;;;;;;2.53;1.60;;;18.00;99.90;;;;;;5021999;28;20572;-78
2022/06/01 06:16:22;;;;;;;2.03;1.50;;;18.00;99.90;;;;;;5024254;28;20829;-78
2022/06/01 06:18:56;;;;;;;2.47;1.77;;;17.90;99.90;;;;;;5024298;28;20539;-77
2022/06/01 06:21:24;;;;;;;2.43;1.40;;;18.00;99.90;;;;;;5017471;28;20473;-78
2022/06/01 06:23:54;;;;;;;2.50;1.50;;;18.00;99.90;;;;;;5019297;28;20463;-76
2022/06/01 06:26:22;;;;;;;4.50;2.10;;;18.00;99.90;;;;;;5017770;28;20964;-79
2022/06/01 06:28:50;;;;;;;1.63;1.53;;;18.10;99.90;;;;;;5017339;28;20526;-77
2022/06/01 06:31:18;;;;;;;1.70;1.57;;;18.10;99.90;;;;;;5023459;28;20472;-77
2022/06/01 06:33:46;;;;;;;2.10;1.80;;;18.20;99.90;;;;;;5020389;28;20494;-77
2022/06/01 06:36:16;;;;;;;3.40;1.97;;;18.30;99.90;;;;;;5024094;28;20464;-78
2022/06/01 06:38:46;;;;;;;1.97;1.70;;;18.40;99.90;;;;;;5020528;28;20483;-78
2022/06/01 06:41:15;;;;;;;1.73;1.63;;;18.40;99.90;;;;;;5025459;28;20486;-78
2022/06/01 06:43:43;;;;;;;3.97;1.60;;;18.50;99.90;;;;;;5022508;28;20971;-77
2022/06/01 06:46:14;;;;;;;1.87;1.77;;;18.40;99.90;;;;;;5022481;28;20488;-77
2022/06/01 06:48:44;;;;;;;2.43;1.50;;;18.50;99.90;;;;;;5019852;28;20499;-77
2022/06/01 06:51:13;;;;;;;1.87;1.70;;;18.70;99.90;;;;;;5020737;28;20534;-76
2022/06/01 06:53:43;;;;;;;3.53;2.00;;;18.80;99.90;;;;;;5021781;28;21047;-78
2022/06/01 06:56:13;;;;;;;5.77;1.90;;;18.90;99.90;;;;;;5019776;28;20456;-77
2022/06/01 06:58:41;;;;;;;1.50;1.40;;;18.90;99.90;;;;;;5022385;28;20464;-77
2022/06/01 07:01:10;;;;;;;1.87;1.70;;;19.00;99.90;;;;;;5015245;28;20480;-78
2022/06/01 07:03:38;;;;;;;1.40;1.30;;;19.10;99.90;;;;;;5021352;28;20445;-77
2022/06/01 07:06:17;;;;;;;2.03;1.60;;;19.10;99.90;;;;;;5023535;28;20539;-78
2022/06/01 07:08:49;;;;;;;1.67;1.50;;;19.20;99.90;;;;;;5021848;28;20971;-77
2022/06/01 07:11:20;;;;;;;2.63;1.60;;;19.30;99.90;;;;;;5009600;28;20478;-77
2022/06/01 07:13:49;;;;;;;1.63;1.50;;;19.40;99.90;;;;;;5015817;28;20488;-78
2022/06/01 07:16:20;;;;;;;1.77;1.27;;;19.50;99.90;;;;;;5016623;28;20466;-78
2022/06/01 07:18:50;;;;;;;1.57;1.37;;;19.50;99.90;;;;;;5017685;28;20535;-78
2022/06/01 07:21:21;;;;;;;1.73;1.53;;;19.50;99.90;;;;;;5023691;28;20468;-78
2022/06/01 07:23:51;;;;;;;1.50;1.40;;;19.60;99.90;;;;;;5018677;28;20457;-78
2022/06/01 07:26:21;;;;;;;1.97;1.77;;;19.70;99.90;;;;;;5021448;28;20460;-78
2022/06/01 07:28:50;;;;;;;2.33;1.47;;;19.70;99.90;;;;;;5021019;28;20464;-77
2022/06/01 07:31:19;;;;;;;2.13;2.03;;;19.80;99.90;;;;;;5022236;28;20488;-78
2022/06/01 07:33:48;;;;;;;1.83;1.73;;;19.80;99.90;;;;;;5018697;28;20477;-78
2022/06/01 07:36:18;;;;;;;3.60;1.30;;;19.90;99.90;;;;;;5012417;28;20467;-78
2022/06/01 07:44:26;;;;;;;1.23;1.13;;;19.90;99.90;;;;;;5020685;28;20461;-78
2022/06/01 07:46:55;;;;;;;1.40;1.30;;;20.00;99.90;;;;;;5016784;28;20464;-77
2022/06/01 07:49:43;;;;;;;2.63;1.43;;;20.00;99.90;;;;;;5020941;28;20457;-78
2022/06/01 07:52:31;;;;;;;1.53;1.40;;;20.00;99.90;;;;;;5009237;28;20584;-77
2022/06/01 07:55:00;;;;;;;1.73;1.20;;;20.00;99.90;;;;;;5017091;28;20485;-78
2022/06/01 07:57:29;;;;;;;1.23;1.20;;;20.00;99.90;;;;;;5019491;28;20485;-78
2022/06/01 07:59:58;;;;;;;1.47;1.30;;;20.10;99.90;;;;;;5020064;28;20459;-78
2022/06/01 08:02:26;;;;;;;2.63;1.13;;;20.20;99.90;;;;;;5021800;28;20551;-77
2022/06/01 08:04:54;;;;;;;1.50;1.40;;;20.20;99.90;;;;;;5024199;28;20586;-78
2022/06/01 08:07:23;;;;;;;1.00;1.00;;;20.20;99.90;;;;;;5026364;28;20459;-78
2022/06/01 08:09:51;;;;;;;1.17;1.10;;;20.20;99.90;;;;;;5016227;28;23121;-78
2022/06/01 08:15:09;;;;;;;1.27;1.17;;;20.30;99.90;;;;;;5019552;28;20480;-77
2022/06/01 08:17:46;;;;;;;1.27;1.17;;;20.40;99.90;;;;;;5013992;28;20552;-78
2022/06/01 08:20:15;;;;;;;1.97;1.40;;;20.40;99.90;;;;;;5012623;28;20504;-78
2022/06/01 08:22:43;;;;;;;1.50;1.20;;;20.50;99.90;;;;;;5019358;28;20462;-78
2022/06/01 08:25:16;;;;;;;1.50;1.40;;;20.50;99.90;;;;;;5031424;28;20468;-77
2022/06/01 08:27:44;;;;;;;1.27;1.20;;;20.60;99.90;;;;;;5020301;28;20461;-78
2022/06/01 08:30:16;;;;;;;1.00;0.90;;;20.70;99.90;;;;;;5021674;28;21100;-78
2022/06/01 08:32:45;;;;;;;1.07;0.97;;;20.80;99.90;;;;;;5010781;28;20472;-78
2022/06/01 08:35:16;;;;;;;1.00;1.00;;;20.80;97.50;;;;;;5017802;28;20879;-77
2022/06/01 08:37:45;;;;;;;3.60;0.90;;;20.70;89.20;;;;;;5019078;28;20468;-79
2022/06/01 08:40:16;;;;;;;2.93;0.90;;;20.80;86.00;;;;;;5014785;28;20480;-78
2022/06/01 08:42:50;;;;;;;0.80;0.80;;;20.60;75.90;;;;;;5016459;28;20443;-76
2022/06/01 08:45:22;;;;;;;1.00;0.90;;;20.70;79.30;;;;;;5017551;28;20193;-77
2022/06/01 08:47:51;;;;;;;0.90;0.90;;;20.70;75.30;;;;;;5016664;28;20471;-77
2022/06/01 08:50:25;;;;;;;1.63;1.00;;;20.70;75.20;;;;;;5020288;28;21321;-76
2022/06/01 08:52:55;;;;;;;2.20;1.00;;;20.90;77.80;;;;;;5015303;28;20515;-76
2022/06/01 08:55:24;;;;;;;2.10;0.90;;;20.80;73.30;;;;;;5013338;28;20831;-77
2022/06/01 08:57:58;;;;;;;1.00;0.90;;;20.60;69.30;;;;;;5007039;28;20465;-77
2022/06/01 09:00:33;;;;;;;1.00;1.00;;;20.60;68.70;;;;;;5013059;28;20493;-76
2022/06/01 09:03:09;;;;;;;1.20;1.10;;;20.80;68.20;;;;;;5016110;28;20492;-76
2022/06/01 09:05:44;;;;;;;1.00;1.00;;;20.90;69.40;;;;;;5007649;28;20858;-77
2022/06/01 09:08:29;;;;;;;1.10;1.00;;;21.10;70.40;;;;;;5016359;28;20522;-76
2022/06/01 09:11:05;;;;;;;1.00;0.90;;;21.20;72.20;;;;;;5013589;28;20567;-77
2022/06/01 09:13:41;;;;;;;0.80;0.80;;;21.30;67.60;;;;;;5010158;28;20551;-76
2022/06/01 09:16:15;;;;;;;1.37;1.10;;;21.40;69.40;;;;;;5010417;28;20467;-76
2022/06/01 09:18:48;;;;;;;1.07;1.07;;;21.50;67.00;;;;;;5012964;28;20538;-76
2022/06/01 09:24:17;;;;;;;1.40;1.30;;;21.50;65.50;;;;;;5011231;28;20455;-77
2022/06/01 09:26:55;;;;;;;1.30;1.20;;;21.60;66.70;;;;;;5009684;28;20461;-76
2022/06/01 09:29:27;;;;;;;1.10;0.90;;;21.60;60.00;;;;;;5016230;28;20468;-76
2022/06/01 09:32:01;;;;;;;0.80;0.80;;;21.40;55.60;;;;;;5018471;28;20534;-77
2022/06/01 09:34:36;;;;;;;1.10;1.00;;;21.40;56.00;;;;;;5018877;28;20502;-76
2022/06/01 09:37:10;;;;;;;1.00;0.80;;;21.30;51.00;;;;;;5017078;28;20479;-76
2022/06/01 09:39:48;;;;;;;0.87;0.70;;;21.20;50.50;;;;;;5017366;28;20452;-76
2022/06/01 09:42:25;;;;;;;0.80;0.80;;;21.30;51.60;;;;;;5007111;28;20452;-76
2022/06/01 09:44:56;;;;;;;0.90;0.90;;;21.50;54.60;;;;;;5017632;28;20567;-76
2022/06/01 09:47:39;;;;;;;1.90;0.80;;;21.60;55.50;;;;;;5014231;28;20462;-77
2022/06/01 09:50:28;;;;;;;1.07;0.80;;;21.70;58.60;;;;;;5017665;28;20518;-76
2022/06/01 09:53:00;;;;;;;1.50;1.10;;;21.80;57.10;;;;;;5010712;28;20581;-79
2022/06/01 09:55:31;;;;;;;1.17;1.07;;;21.90;54.60;;;;;;5029206;28;20721;-79
2022/06/01 09:58:06;;;;;;;0.80;0.80;;;21.80;50.50;;;;;;5011740;28;20448;-79
2022/06/01 10:06:21;;;;;;;1.17;0.80;;;22.00;54.00;;;;;;5024217;28;21075;-77
2022/06/01 10:09:04;;;;;;;1.33;0.77;;;22.10;55.10;;;;;;5016840;28;20487;-79
2022/06/01 10:11:35;;;;;;;0.80;0.80;;;22.10;52.90;;;;;;5027250;28;20464;-79
2022/06/01 10:14:14;;;;;;;1.90;1.00;;;22.00;48.70;;;;;;5017546;28;20463;-79
2022/06/01 10:16:59;;;;;;;0.80;0.80;;;21.90;49.00;;;;;;5026430;28;20859;-79
2022/06/01 10:19:31;;;;;;;0.80;0.80;;;22.10;50.40;;;;;;5025501;28;20819;-79
2022/06/01 10:22:03;;;;;;;0.83;0.73;;;22.20;53.30;;;;;;5011573;28;20484;-79
2022/06/01 10:24:35;;;;;;;0.97;0.90;;;22.20;52.30;;;;;;5013953;28;20444;-77
2022/06/01 10:27:07;;;;;;;1.27;0.93;;;22.20;54.60;;;;;;5019072;28;20451;-78
2022/06/01 10:29:39;;;;;;;0.80;0.80;;;22.30;55.90;;;;;;5019469;28;20571;-79
2022/06/01 10:32:10;;;;;;;1.27;0.80;;;22.40;56.50;;;;;;5027022;28;20535;-79
2022/06/01 10:34:46;;;;;;;1.17;0.93;;;22.50;56.50;;;;;;5026630;28;20484;-79
2022/06/01 10:37:20;;;;;;;1.10;1.00;;;22.60;56.60;;;;;;5026468;28;20458;-79
2022/06/01 10:39:52;;;;;;;1.13;1.00;;;22.70;55.80;;;;;;5018225;28;20444;-80
2022/06/01 10:43:16;;;;;;;2.80;0.97;;;22.70;54.90;;;;;;5023248;28;20463;-79
2022/06/01 10:45:15;;;;;;;1.77;0.80;;;22.70;56.50;;;;;;5023597;28;20458;-79
2022/06/01 10:47:56;;;;;;;1.10;1.00;;;22.50;51.10;;;;;;5028142;28;20459;-79
2022/06/01 10:50:30;;;;;;;1.83;0.77;;;22.50;52.40;;;;;;5028193;28;20475;-79
2022/06/01 10:53:06;;;;;;;0.80;0.73;;;22.60;51.60;;;;;;5013803;28;20473;-79
2022/06/01 10:55:39;;;;;;;0.70;0.70;;;22.50;50.70;;;;;;5029177;28;20475;-79
2022/06/01 10:58:11;;;;;;;1.17;0.90;;;22.50;49.80;;;;;;5025850;28;20552;-78
2022/06/01 11:00:46;;;;;;;1.00;0.70;;;22.50;49.50;;;;;;5022397;28;20472;-79
2022/06/01 11:03:37;;;;;;;1.10;1.00;;;22.60;50.60;;;;;;5022890;28;20449;-80
2022/06/01 11:06:26;;;;;;;0.93;0.93;;;22.80;54.60;;;;;;5014334;28;21299;-80
2022/06/01 11:09:01;;;;;;;0.90;0.90;;;22.90;55.30;;;;;;5018634;28;20749;-80
2022/06/01 11:11:40;;;;;;;0.80;0.80;;;22.90;55.40;;;;;;5016129;28;20479;-81
2022/06/01 11:14:26;;;;;;;1.10;0.90;;;22.70;49.60;;;;;;5017066;28;20858;-81
2022/06/01 11:16:58;;;;;;;0.93;0.90;;;22.60;46.60;;;;;;5023626;28;20457;-81
2022/06/01 11:19:45;;;;;;;1.20;0.80;;;22.60;46.50;;;;;;5024525;28;20468;-80
2022/06/01 11:22:26;;;;;;;1.10;0.93;;;22.60;49.90;;;;;;5015811;28;20510;-81
2022/06/01 11:25:07;;;;;;;0.90;0.70;;;22.60;46.70;;;;;;5022848;28;20468;-80
2022/06/01 11:27:50;;;;;;;1.03;0.90;;;22.30;48.00;;;;;;5020203;28;20451;-81
2022/06/01 11:30:21;;;;;;;1.90;1.00;;;22.70;43.60;;;;;;5018628;28;20915;-81
2022/06/01 11:33:04;;;;;;;0.90;0.90;;;22.70;46.70;;;;;;5023181;28;20484;-81
2022/06/01 11:35:37;;;;;;;1.27;1.00;;;22.60;44.60;;;;;;5025730;28;20558;-80
2022/06/01 11:38:12;;;;;;;0.90;0.90;;;22.60;44.10;;;;;;5024985;28;20917;-80
2022/06/01 11:40:46;;;;;;;1.37;0.80;;;22.70;44.90;;;;;;5021438;28;20917;-80
2022/06/01 11:43:27;;;;;;;2.70;0.90;;;22.60;42.40;;;;;;5024957;28;20456;-80
2022/06/01 11:46:02;;;;;;;1.20;1.10;;;22.50;41.20;;;;;;5027866;28;20479;-79
2022/06/01 11:48:32;;;;;;;1.27;0.80;;;22.60;44.20;;;;;;5023244;28;21053;-80
2022/06/01 11:51:13;;;;;;;1.10;0.77;;;22.80;47.00;;;;;;5022795;28;20472;-79
2022/06/01 11:53:57;;;;;;;1.20;0.80;;;22.90;45.90;;;;;;5024016;28;20471;-79
2022/06/01 11:56:34;;;;;;;1.87;0.83;;;22.80;45.50;;;;;;5028821;28;20480;-80
2022/06/01 11:59:22;;;;;;;0.90;0.90;;;22.90;47.90;;;;;;5026339;28;20449;-80
2022/06/01 12:02:03;;;;;;;0.80;0.70;;;23.00;50.40;;;;;;5022660;28;21051;-80
2022/06/01 12:04:51;;;;;;;0.77;0.77;;;23.20;69.50;;;;;;5032974;28;20468;-80
2022/06/01 12:07:25;;;;;;;1.00;0.90;;;23.20;53.40;;;;;;5023114;28;20904;-79
2022/06/01 12:10:02;;;;;;;1.03;0.93;;;23.20;49.90;;;;;;5028822;28;20457;-81
2022/06/01 12:12:57;;;;;;;1.03;0.90;;;23.20;50.50;;;;;;5025953;28;20441;-80
2022/06/01 12:15:32;;;;;;;1.03;0.93;;;23.20;49.40;;;;;;5022381;28;20481;-80
2022/06/01 12:18:06;;;;;;;0.73;0.73;;;23.20;49.70;;;;;;5023628;28;21031;-79
2022/06/01 12:20:53;;;;;;;0.97;0.97;;;23.20;49.50;;;;;;5023821;28;20499;-80
2022/06/01 12:30:08;;;;;;;1.27;0.80;;;23.30;50.10;;;;;;5022300;28;20500;-80
2022/06/01 12:33:09;;;;;;;1.20;0.90;;;23.20;48.00;;;;;;5024910;28;20468;-80
2022/06/01 12:35:55;;;;;;;1.30;1.20;;;23.10;46.60;;;;;;5027195;28;20483;-80
2022/06/01 12:38:33;;;;;;;1.03;1.00;;;23.10;49.20;;;;;;5027799;28;20452;-81
2022/06/01 12:41:14;;;;;;;1.00;0.90;;;23.20;50.40;;;;;;5027399;28;20849;-80
2022/06/01 12:43:51;;;;;;;1.37;0.90;;;23.30;50.70;;;;;;5023769;28;20857;-79
2022/06/01 12:46:25;;;;;;;0.77;0.77;;;23.40;52.00;;;;;;5030058;28;20459;-80
2022/06/01 12:49:25;;;;;;;1.10;0.87;;;23.40;51.20;;;;;;5020477;28;20474;-81
2022/06/01 12:51:56;;;;;;;1.63;1.00;;;23.30;50.20;;;;;;5016714;28;20503;-80
2022/06/01 12:54:30;;;;;;;2.03;0.90;;;23.30;51.70;;;;;;5024929;28;20456;-80
2022/06/01 12:56:58;;;;;;;1.50;1.00;;;23.40;51.80;;;;;;5021269;28;20480;-80
2022/06/01 12:59:31;;;;;;;2.50;0.80;;;23.40;52.80;;;;;;5026393;28;21763;-80
2022/06/01 13:02:01;;;;;;;1.67;0.93;;;23.40;52.80;;;;;;5022503;28;20476;-79
2022/06/01 13:04:36;;;;;;;1.00;1.00;;;23.40;54.10;;;;;;5024664;28;20468;-80
2022/06/01 13:07:07;;;;;;;1.70;1.00;;;23.40;53.40;;;;;;5021272;28;20455;-80
2022/06/01 13:09:35;;;;;;;1.20;0.97;;;23.20;50.00;;;;;;5024902;28;21153;-79
2022/06/01 13:12:07;;;;;;;3.00;1.00;;;23.30;51.50;;;;;;5022858;28;20476;-79
2022/06/01 13:14:37;;;;;;;2.27;1.00;;;23.30;51.00;;;;;;5012644;28;20492;-79
2022/06/01 13:17:13;;;;;;;2.30;1.17;;;23.30;69.40;;;;;;5017026;28;20486;-80
2022/06/01 13:19:41;;;;;;;2.80;1.10;;;23.30;53.80;;;;;;5009533;28;20468;-80
2022/06/01 13:22:17;;;;;;;1.27;1.17;;;23.30;53.90;;;;;;5019359;28;20468;-80
2022/06/01 13:24:49;;;;;;;1.47;1.00;;;23.20;51.90;;;;;;4998867;28;21265;-80
2022/06/01 13:27:23;;;;;;;2.70;1.00;;;23.20;51.80;;;;;;5011563;28;20453;-81
2022/06/01 13:29:59;;;;;;;1.13;1.03;;;23.20;51.60;;;;;;5016326;28;20812;-80
2022/06/01 13:32:31;;;;;;;0.80;0.80;;;23.20;51.00;;;;;;5017613;28;21016;-80
2022/06/01 13:35:03;;;;;;;1.07;1.00;;;23.20;68.10;;;;;;5026531;28;20436;-80
2022/06/01 13:37:42;;;;;;;1.23;0.83;;;23.20;52.90;;;;;;5027867;28;20527;-79
2022/06/01 13:40:23;;;;;;;0.90;0.90;;;23.20;51.20;;;;;;5026760;28;20555;-80
2022/06/01 13:43:01;;;;;;;1.33;0.90;;;23.30;50.60;;;;;;5018585;28;20965;-80
2022/06/01 13:45:52;;;;;;;1.10;0.90;;;23.30;51.90;;;;;;5015142;28;20460;-79
2022/06/01 13:48:32;;;;;;;1.67;1.50;;;23.30;52.50;;;;;;5012658;28;20460;-80
2022/06/01 13:51:02;;;;;;;0.80;0.80;;;23.20;51.00;;;;;;5016539;28;20464;-80